Terminal Aerodrome Forecast
Issued by NWS Jackson, MS

Home | Current Version | Previous Version | Text Only | Print | Product List | Glossary On
Versions: 1 2 3 4 5 6 7 8 9 10 11 12 13 14 15 16 17
000
FTUS44 KJAN 291731
TAFJAN
TAF
KJAN 291731Z 2918/3018 VRB04KT P6SM FEW029 SCT040 BKN050
     FM292000 16006KT P6SM VCTS BKN050CB
     FM300000 VRB03KT P6SM OVC100
     FM300900 16004KT P6SM OVC007
     FM301200 18010KT P6SM OVC050=

USA.gov is the U.S. government's official web portal to all federal, state and local government web resources and services.